createdAt,value
2019-03-17T00:01:22.424Z,1.30
2019-03-17T00:03:50.818Z,1.50
2019-03-17T00:06:19.251Z,1.20
2019-03-17T00:08:47.787Z,1.20
2019-03-17T00:11:16.224Z,1.17
2019-03-17T00:13:44.651Z,1.37
2019-03-17T00:16:13.096Z,1.30
2019-03-17T00:18:41.514Z,1.23
2019-03-17T00:21:09.951Z,1.47
2019-03-17T00:23:38.398Z,1.40
2019-03-17T00:26:06.829Z,1.57
2019-03-17T00:28:35.279Z,1.20
2019-03-17T00:31:03.696Z,1.37
2019-03-17T00:33:32.111Z,1.40
2019-03-17T00:36:03.588Z,1.50
2019-03-17T00:38:32.022Z,1.10
2019-03-17T00:41:00.440Z,1.00
2019-03-17T00:43:28.889Z,1.23
2019-03-17T00:45:59.773Z,1.20
2019-03-17T00:48:28.359Z,0.70
2019-03-17T00:50:56.803Z,0.87
2019-03-17T00:53:25.268Z,1.00
2019-03-17T00:55:53.666Z,1.13
2019-03-17T00:58:22.086Z,0.87
2019-03-17T01:00:50.588Z,0.90
2019-03-17T01:03:19.003Z,0.87
2019-03-17T01:05:47.493Z,1.00
2019-03-17T01:08:15.903Z,1.17
2019-03-17T01:10:44.426Z,1.10
2019-03-17T01:13:12.897Z,1.00
2019-03-17T01:15:41.314Z,1.17
2019-03-17T01:18:09.718Z,0.93
2019-03-17T01:20:38.136Z,1.17
2019-03-17T01:23:06.531Z,0.93
2019-03-17T01:25:35.018Z,0.90
2019-03-17T01:28:03.424Z,1.50
2019-03-17T01:30:31.877Z,1.10
2019-03-17T01:33:00.322Z,0.90
2019-03-17T01:35:28.737Z,1.00
2019-03-17T01:37:57.137Z,1.03
2019-03-17T01:40:25.665Z,1.00
2019-03-17T01:42:54.067Z,1.10
2019-03-17T01:45:22.544Z,1.10
2019-03-17T01:47:50.984Z,1.10
2019-03-17T01:50:19.406Z,1.20
2019-03-17T01:52:47.810Z,0.90
2019-03-17T01:55:16.250Z,1.20
2019-03-17T01:57:44.644Z,0.97
2019-03-17T02:00:13.951Z,1.00
2019-03-17T02:02:42.382Z,1.23
2019-03-17T02:05:21.515Z,1.00
2019-03-17T02:07:41.074Z,1.00
2019-03-17T02:10:09.584Z,1.30
2019-03-17T02:12:38.060Z,1.17
2019-03-17T02:15:07.842Z,0.87
2019-03-17T02:17:36.277Z,1.37
2019-03-17T02:20:06.951Z,1.40
2019-03-17T02:22:35.350Z,1.17
2019-03-17T02:25:04.224Z,1.20
2019-03-17T02:27:32.662Z,1.30
2019-03-17T02:30:01.063Z,1.20
2019-03-17T02:32:29.516Z,1.27
2019-03-17T02:34:57.932Z,1.13
2019-03-17T02:37:26.342Z,1.47
2019-03-17T02:39:54.748Z,1.10
2019-03-17T02:42:23.183Z,1.37
2019-03-17T02:44:51.596Z,1.20
2019-03-17T02:47:20.006Z,1.13
2019-03-17T02:49:48.449Z,1.30
2019-03-17T02:52:16.951Z,0.90
2019-03-17T02:54:45.453Z,1.40
2019-03-17T02:57:13.950Z,1.00
2019-03-17T02:59:42.356Z,1.17
2019-03-17T03:02:10.810Z,1.20
2019-03-17T03:04:39.207Z,1.20
2019-03-17T03:07:07.618Z,1.03
2019-03-17T03:09:36.059Z,1.30
2019-03-17T03:12:04.514Z,0.97
2019-03-17T03:14:32.974Z,1.37
2019-03-17T03:17:01.438Z,1.50
2019-03-17T03:19:29.834Z,1.10
2019-03-17T03:21:58.242Z,1.30
2019-03-17T03:24:26.740Z,1.63
2019-03-17T03:26:55.149Z,1.40
2019-03-17T03:29:27.135Z,1.27
2019-03-17T03:31:53.770Z,1.43
2019-03-17T03:34:22.287Z,1.50
2019-03-17T03:36:50.683Z,1.57
2019-03-17T03:39:19.121Z,1.50
2019-03-17T03:41:47.544Z,1.10
2019-03-17T03:44:15.989Z,1.30
2019-03-17T03:46:44.410Z,1.63
2019-03-17T03:49:12.842Z,1.50
2019-03-17T03:51:41.262Z,1.30
2019-03-17T03:54:09.677Z,1.27
2019-03-17T03:56:38.112Z,1.53
2019-03-17T03:59:06.560Z,1.27
2019-03-17T04:01:34.961Z,1.70
2019-03-17T04:04:03.373Z,1.50
2019-03-17T04:06:31.775Z,1.43
2019-03-17T04:09:00.208Z,1.53
2019-03-17T04:11:28.617Z,1.10
2019-03-17T04:13:57.035Z,1.40
2019-03-17T04:16:25.462Z,1.50
2019-03-17T04:18:53.870Z,1.40
2019-03-17T04:21:22.279Z,1.73
2019-03-17T04:23:50.709Z,1.90
2019-03-17T04:26:19.143Z,1.70
2019-03-17T04:28:47.563Z,1.70
2019-03-17T04:31:15.983Z,1.80
2019-03-17T04:33:44.476Z,1.37
2019-03-17T04:36:12.968Z,1.70
2019-03-17T04:38:43.800Z,1.70
2019-03-17T04:41:11.567Z,1.77
2019-03-17T04:43:40.016Z,1.90
2019-03-17T04:46:08.452Z,1.50
2019-03-17T04:48:36.884Z,1.53
2019-03-17T04:51:05.306Z,1.60
2019-03-17T04:53:33.788Z,1.93
2019-03-17T04:56:02.186Z,1.70
2019-03-17T04:58:30.632Z,1.77
2019-03-17T05:00:59.037Z,1.97
2019-03-17T05:03:27.494Z,1.20
2019-03-17T05:05:55.908Z,1.53
2019-03-17T05:08:24.315Z,1.40
2019-03-17T05:10:52.776Z,1.47
2019-03-17T05:13:21.178Z,1.47
2019-03-17T05:15:49.908Z,1.50
2019-03-17T05:18:18.497Z,1.50
2019-03-17T05:20:46.880Z,1.07
2019-03-17T05:23:15.296Z,1.50
2019-03-17T05:25:43.804Z,1.47
2019-03-17T05:28:12.232Z,1.60
2019-03-17T05:30:40.623Z,1.57
2019-03-17T05:33:09.119Z,1.87
2019-03-17T05:35:37.628Z,1.63
2019-03-17T05:38:05.989Z,1.27
2019-03-17T05:40:34.503Z,1.43
2019-03-17T05:43:02.914Z,1.43
2019-03-17T05:45:31.360Z,1.73
2019-03-17T05:47:59.766Z,1.70
2019-03-17T05:50:28.192Z,1.63
2019-03-17T05:52:56.633Z,1.60
2019-03-17T05:55:25.037Z,1.77
2019-03-17T05:57:53.485Z,1.50
2019-03-17T06:00:21.954Z,1.40
2019-03-17T06:02:50.375Z,1.90
2019-03-17T06:05:18.852Z,1.40
2019-03-17T06:07:47.397Z,1.90
2019-03-17T06:10:15.861Z,1.70
2019-03-17T06:12:44.328Z,1.73
2019-03-17T06:15:12.840Z,1.80
2019-03-17T06:17:41.252Z,1.57
2019-03-17T06:20:11.415Z,1.77
2019-03-17T06:22:39.843Z,1.80
2019-03-17T06:25:09.497Z,1.80
2019-03-17T06:27:37.933Z,1.60
2019-03-17T06:30:09.376Z,1.70
2019-03-17T06:32:37.800Z,7.23
2019-03-17T06:35:06.581Z,2.20
2019-03-17T06:37:35.024Z,2.03
2019-03-17T06:40:04.533Z,1.83
2019-03-17T06:42:33.077Z,2.37
2019-03-17T06:45:01.493Z,2.07
2019-03-17T06:47:29.893Z,1.90
2019-03-17T06:49:58.336Z,1.73
2019-03-17T06:52:26.748Z,2.03
2019-03-17T06:54:55.205Z,1.87
2019-03-17T06:57:23.583Z,2.50
2019-03-17T06:59:52.059Z,2.30
2019-03-17T07:02:20.482Z,2.60
2019-03-17T07:04:49.042Z,2.77
2019-03-17T07:07:17.483Z,2.40
2019-03-17T07:09:45.885Z,2.47
2019-03-17T07:12:14.391Z,2.30
2019-03-17T07:14:42.826Z,2.27
2019-03-17T07:17:11.256Z,2.70
2019-03-17T07:19:39.843Z,2.43
2019-03-17T07:22:08.377Z,2.93
2019-03-17T07:24:36.792Z,2.67
2019-03-17T07:27:05.259Z,3.20
2019-03-17T07:29:33.615Z,2.97
2019-03-17T07:32:02.029Z,2.37
2019-03-17T07:34:30.512Z,2.10
2019-03-17T07:36:58.908Z,2.20
2019-03-17T07:39:27.409Z,2.40
2019-03-17T07:41:55.849Z,2.10
2019-03-17T07:44:24.379Z,2.33
2019-03-17T07:46:52.840Z,2.40
2019-03-17T07:49:21.437Z,2.47
2019-03-17T07:51:49.879Z,2.13
2019-03-17T07:54:19.220Z,2.87
2019-03-17T07:56:47.664Z,2.23
2019-03-17T07:59:16.119Z,2.57
2019-03-17T08:01:44.527Z,2.30
2019-03-17T08:04:12.968Z,2.30
2019-03-17T08:06:41.429Z,2.67
2019-03-17T08:09:09.931Z,2.30
2019-03-17T08:11:38.356Z,2.27
2019-03-17T08:14:06.871Z,2.40
2019-03-17T08:16:35.309Z,2.37
2019-03-17T08:19:03.753Z,2.03
2019-03-17T08:21:32.103Z,2.30
2019-03-17T08:24:00.622Z,2.43
2019-03-17T08:26:29.035Z,2.57
2019-03-17T08:28:57.443Z,2.77
2019-03-17T08:31:26.083Z,2.27
2019-03-17T08:33:54.528Z,1.63
2019-03-17T08:36:23.028Z,2.57
2019-03-17T08:38:51.442Z,3.03
2019-03-17T08:41:19.833Z,1.67
2019-03-17T08:43:54.096Z,2.57
2019-03-17T08:46:18.519Z,2.57
2019-03-17T08:48:47.003Z,2.50
2019-03-17T08:51:15.470Z,2.10
2019-03-17T08:53:43.869Z,2.07
2019-03-17T08:56:12.344Z,2.50
2019-03-17T08:58:40.829Z,4.10
2019-03-17T09:01:09.285Z,3.23
2019-03-17T09:03:37.848Z,2.60
2019-03-17T09:06:06.217Z,2.63
2019-03-17T09:08:52.784Z,2.30
2019-03-17T09:11:21.211Z,2.33
2019-03-17T09:13:49.641Z,2.10
2019-03-17T09:16:18.173Z,2.43
2019-03-17T09:18:46.792Z,1.70
2019-03-17T09:21:15.249Z,2.37
2019-03-17T09:23:43.682Z,2.37
2019-03-17T09:26:12.229Z,2.00
2019-03-17T09:28:40.717Z,2.47
2019-03-17T09:31:09.315Z,1.93
2019-03-17T09:33:37.778Z,1.93
2019-03-17T09:36:06.190Z,2.57
2019-03-17T09:38:46.392Z,2.13
2019-03-17T09:41:04.979Z,2.23
2019-03-17T09:43:33.497Z,2.20
2019-03-17T09:46:01.903Z,2.43
2019-03-17T09:48:30.324Z,1.73
2019-03-17T09:50:58.745Z,2.00
2019-03-17T09:53:28.569Z,2.40
2019-03-17T09:55:57.278Z,2.60
2019-03-17T09:58:25.784Z,2.40
2019-03-17T10:00:54.190Z,2.43
2019-03-17T10:03:22.616Z,2.47
2019-03-17T10:05:51.060Z,3.10
2019-03-17T10:08:19.593Z,2.37
2019-03-17T10:10:48.055Z,5.63
2019-03-17T10:13:16.542Z,3.00
2019-03-17T10:15:45.036Z,2.93
2019-03-17T10:18:13.499Z,4.77
2019-03-17T10:20:41.979Z,3.83
2019-03-17T10:23:10.454Z,3.03
2019-03-17T10:25:38.889Z,4.13
2019-03-17T10:28:07.496Z,3.17
2019-03-17T10:30:35.896Z,3.37
2019-03-17T10:33:07.664Z,2.93
2019-03-17T10:35:36.103Z,2.40
2019-03-17T10:38:04.697Z,2.70
2019-03-17T10:40:33.114Z,2.90
2019-03-17T10:43:01.575Z,2.30
2019-03-17T10:45:29.998Z,2.50
2019-03-17T10:47:58.671Z,2.50
2019-03-17T10:50:27.109Z,2.30
2019-03-17T10:52:56.007Z,2.67
2019-03-17T10:55:24.399Z,2.20
2019-03-17T10:57:52.797Z,3.17
2019-03-17T11:00:22.173Z,2.60
2019-03-17T11:02:50.682Z,2.80
2019-03-17T11:05:19.074Z,2.33
2019-03-17T11:07:47.550Z,3.43
2019-03-17T11:10:16.613Z,3.70
2019-03-17T11:12:45.018Z,2.77
2019-03-17T11:15:17.860Z,2.63
2019-03-17T11:17:46.435Z,5.30
2019-03-17T11:20:15.438Z,2.03
2019-03-17T11:22:43.865Z,1.97
2019-03-17T11:25:17.532Z,2.53
2019-03-17T11:27:45.989Z,7.90
2019-03-17T11:30:18.603Z,2.47
2019-03-17T11:32:47.003Z,2.30
2019-03-17T11:35:15.527Z,2.43
2019-03-17T11:37:44.054Z,2.60
2019-03-17T11:40:15.519Z,1.87
2019-03-17T11:42:44.058Z,2.63
2019-03-17T11:45:14.329Z,2.20
2019-03-17T11:47:42.965Z,3.30
2019-03-17T11:50:14.237Z,1.30
2019-03-17T11:52:42.829Z,0.70
2019-03-17T11:55:12.018Z,0.80
2019-03-17T11:57:40.857Z,0.60
2019-03-17T12:00:17.173Z,0.80
2019-03-17T12:02:45.911Z,0.60
2019-03-17T12:05:14.511Z,0.33
2019-03-17T12:07:42.937Z,0.30
2019-03-17T12:10:14.381Z,0.33
2019-03-17T12:12:42.886Z,0.37
2019-03-17T12:15:14.358Z,0.47
2019-03-17T12:17:42.889Z,1.00
2019-03-17T12:20:15.891Z,0.77
2019-03-17T12:22:44.464Z,0.63
2019-03-17T12:25:14.979Z,0.50
2019-03-17T12:27:43.369Z,0.50
2019-03-17T12:30:23.599Z,0.50
2019-03-17T12:32:53.424Z,0.50
2019-03-17T12:35:22.107Z,0.60
2019-03-17T12:37:50.675Z,0.60
2019-03-17T12:40:19.306Z,0.63
2019-03-17T12:42:47.737Z,0.50
2019-03-17T12:45:16.303Z,0.50
2019-03-17T12:47:44.741Z,0.60
2019-03-17T12:50:15.915Z,0.50
2019-03-17T12:52:44.323Z,0.60
2019-03-17T12:55:12.788Z,0.53
2019-03-17T12:57:41.482Z,0.50
2019-03-17T13:00:23.244Z,0.47
2019-03-17T13:02:51.679Z,0.60
2019-03-17T13:05:20.149Z,1.17
2019-03-17T13:07:48.707Z,0.50
2019-03-17T13:10:20.213Z,0.30
2019-03-17T13:12:48.750Z,0.50
2019-03-17T13:15:17.266Z,1.90
2019-03-17T13:17:45.751Z,1.13
2019-03-17T13:20:16.491Z,0.50
2019-03-17T13:22:44.915Z,0.50
2019-03-17T13:25:13.555Z,0.70
2019-03-17T13:27:41.993Z,0.33
2019-03-17T13:30:14.839Z,0.60
2019-03-17T13:32:43.306Z,0.30
2019-03-17T13:35:12.083Z,0.60
2019-03-17T13:37:40.577Z,0.50
2019-03-17T13:40:11.420Z,0.53
2019-03-17T13:42:40.052Z,0.50
2019-03-17T13:45:11.055Z,0.90
2019-03-17T13:47:39.755Z,0.60
2019-03-17T13:50:16.529Z,0.40
2019-03-17T13:52:44.952Z,0.40
2019-03-17T13:55:13.611Z,0.60
2019-03-17T13:57:45.151Z,0.47
2019-03-17T14:00:15.136Z,0.53
2019-03-17T14:02:43.581Z,0.40
2019-03-17T14:05:12.524Z,0.40
2019-03-17T14:07:40.989Z,0.60
2019-03-17T14:10:17.364Z,0.60
2019-03-17T14:12:45.795Z,0.60
2019-03-17T14:15:15.126Z,1.10
2019-03-17T14:17:43.873Z,0.57
2019-03-17T14:20:20.514Z,1.00
2019-03-17T14:22:48.469Z,0.70
2019-03-17T14:25:31.867Z,0.70
2019-03-17T14:28:00.248Z,0.70
2019-03-17T14:30:30.110Z,0.80
2019-03-17T14:32:58.497Z,0.60
2019-03-17T14:35:27.144Z,0.70
2019-03-17T14:37:55.548Z,0.87
2019-03-17T14:40:24.211Z,0.57
2019-03-17T14:42:55.243Z,0.70
2019-03-17T14:45:23.033Z,0.70
2019-03-17T14:47:51.623Z,1.47
2019-03-17T14:50:22.033Z,0.97
2019-03-17T14:52:50.823Z,0.80
2019-03-17T14:55:19.372Z,0.60
2019-03-17T14:57:47.883Z,0.73
2019-03-17T15:00:20.598Z,0.70
2019-03-17T15:02:49.264Z,0.60
2019-03-17T15:05:18.268Z,0.70
2019-03-17T15:07:47.146Z,0.40
2019-03-17T15:10:23.096Z,0.60
2019-03-17T15:12:56.360Z,0.90
2019-03-17T15:15:24.964Z,0.80
2019-03-17T15:20:27.024Z,1.17
2019-03-17T15:22:55.432Z,1.00
2019-03-17T15:25:23.944Z,1.00
2019-03-17T15:27:52.427Z,0.93
2019-03-17T15:30:25.382Z,1.20
2019-03-17T15:32:53.917Z,1.10
2019-03-17T15:35:22.930Z,1.20
2019-03-17T15:37:51.619Z,1.10
2019-03-17T15:40:26.189Z,1.10
2019-03-17T15:42:54.656Z,1.40
2019-03-17T15:45:24.142Z,2.27
2019-03-17T15:47:52.748Z,1.43
2019-03-17T15:50:26.712Z,1.83
2019-03-17T15:52:55.146Z,1.90
2019-03-17T15:55:23.650Z,1.50
2019-03-17T15:57:52.316Z,1.40
2019-03-17T16:00:26.628Z,1.17
2019-03-17T16:02:55.063Z,1.17
2019-03-17T16:05:23.551Z,1.10
2019-03-17T16:07:52.013Z,1.40
2019-03-17T16:10:31.341Z,1.30
2019-03-17T16:12:59.843Z,0.93
2019-03-17T16:15:28.266Z,0.97
2019-03-17T16:17:56.681Z,0.90
2019-03-17T16:20:26.077Z,1.17
2019-03-17T16:22:54.507Z,0.80
2019-03-17T16:25:27.509Z,0.90
2019-03-17T16:27:56.051Z,0.87
2019-03-17T16:30:31.477Z,0.60
2019-03-17T16:33:00.087Z,0.50
2019-03-17T16:35:28.527Z,0.63
2019-03-17T16:37:57.013Z,1.00
2019-03-17T16:40:33.314Z,0.83
2019-03-17T16:43:01.823Z,0.40
2019-03-17T16:45:30.207Z,0.53
2019-03-17T16:47:58.705Z,0.87
2019-03-17T16:50:27.137Z,0.77
2019-03-17T16:52:57.351Z,0.60
2019-03-17T16:55:26.386Z,0.53
2019-03-17T16:57:54.799Z,0.50
2019-03-17T17:00:25.291Z,0.83
2019-03-17T17:02:53.859Z,0.60
2019-03-17T17:05:23.615Z,0.73
2019-03-17T17:07:52.205Z,0.43
2019-03-17T17:10:27.725Z,0.50
2019-03-17T17:12:56.693Z,0.60
2019-03-17T17:15:29.257Z,0.73
2019-03-17T17:17:57.675Z,0.87
2019-03-17T17:20:31.165Z,0.70
2019-03-17T17:22:59.647Z,0.87
2019-03-17T17:25:28.069Z,0.70
2019-03-17T17:27:56.545Z,0.70
2019-03-17T17:30:24.969Z,0.50
2019-03-17T17:32:53.411Z,0.77
2019-03-17T17:35:21.871Z,0.50
2019-03-17T17:37:50.301Z,0.57
2019-03-17T17:40:23.529Z,1.00
2019-03-17T17:42:52.112Z,0.80
2019-03-17T17:45:22.809Z,1.00
2019-03-17T17:47:51.315Z,1.13
2019-03-17T17:50:21.113Z,1.13
2019-03-17T17:52:49.548Z,0.70
2019-03-17T17:55:18.096Z,0.57
2019-03-17T17:57:46.613Z,0.93
2019-03-17T18:00:19.341Z,0.70
2019-03-17T18:02:47.790Z,1.87
2019-03-17T18:05:16.380Z,1.27
2019-03-17T18:07:44.890Z,0.90
2019-03-17T18:10:17.400Z,0.70
2019-03-17T18:12:45.941Z,0.73
2019-03-17T18:15:20.039Z,1.00
2019-03-17T18:17:48.454Z,0.87
2019-03-17T18:20:16.901Z,0.80
2019-03-17T18:22:45.306Z,1.00
2019-03-17T18:25:17.835Z,1.30
2019-03-17T18:27:46.274Z,0.93
2019-03-17T18:30:23.036Z,1.03
2019-03-17T18:32:51.499Z,1.00
2019-03-17T18:35:20.016Z,3.90
2019-03-17T18:37:50.946Z,1.93
2019-03-17T18:40:19.815Z,1.10
2019-03-17T18:42:48.519Z,1.30
2019-03-17T18:45:25.453Z,2.60
2019-03-17T18:47:53.977Z,2.60
2019-03-17T18:50:22.462Z,1.57
2019-03-17T18:52:50.897Z,1.10
2019-03-17T18:55:19.451Z,1.70
2019-03-17T18:57:47.919Z,1.30
2019-03-17T19:00:18.681Z,1.60
2019-03-17T19:02:47.231Z,1.37
2019-03-17T19:05:19.500Z,1.33
2019-03-17T19:07:46.691Z,1.07
2019-03-17T19:10:18.568Z,1.63
2019-03-17T19:12:48.032Z,1.33
2019-03-17T19:15:20.954Z,1.30
2019-03-17T19:17:51.069Z,1.40
2019-03-17T19:20:22.930Z,1.40
2019-03-17T19:22:52.705Z,1.70
2019-03-17T19:25:26.910Z,1.50
2019-03-17T19:27:55.376Z,1.33
2019-03-17T19:30:24.268Z,1.63
2019-03-17T19:32:52.732Z,1.10
2019-03-17T19:35:26.020Z,1.67
2019-03-17T19:37:54.690Z,1.27
2019-03-17T19:40:24.360Z,1.37
2019-03-17T19:42:59.026Z,1.30
2019-03-17T19:45:23.193Z,1.57
2019-03-17T19:47:51.637Z,0.90
2019-03-17T19:50:23.332Z,1.40
2019-03-17T19:52:51.760Z,1.33
2019-03-17T19:55:20.169Z,1.07
2019-03-17T19:57:48.700Z,1.53
2019-03-17T20:00:17.948Z,1.17
2019-03-17T20:02:47.704Z,1.00
2019-03-17T20:05:16.544Z,1.10
2019-03-17T20:07:45.105Z,1.37
2019-03-17T20:10:30.298Z,1.20
2019-03-17T20:13:11.050Z,1.10
2019-03-17T20:15:29.039Z,1.10
2019-03-17T20:17:57.674Z,1.30
2019-03-17T20:20:26.699Z,1.67
2019-03-17T20:22:55.351Z,1.13
2019-03-17T20:25:23.838Z,1.30
2019-03-17T20:27:52.292Z,0.93
2019-03-17T20:30:20.832Z,1.53
2019-03-17T20:32:49.353Z,1.30
2019-03-17T20:35:17.768Z,1.00
2019-03-17T20:37:46.316Z,1.20
2019-03-17T20:40:15.917Z,1.53
2019-03-17T20:42:44.399Z,1.07
2019-03-17T20:45:16.242Z,1.60
2019-03-17T20:47:44.889Z,1.30
2019-03-17T20:50:16.461Z,1.57
2019-03-17T20:52:44.875Z,1.20
2019-03-17T20:55:13.586Z,1.30
2019-03-17T20:57:42.054Z,1.50
2019-03-17T21:00:31.359Z,1.53
2019-03-17T21:02:59.840Z,1.67
2019-03-17T21:05:28.457Z,1.20
2019-03-17T21:07:56.900Z,1.30
2019-03-17T21:10:25.453Z,1.23
2019-03-17T21:12:53.927Z,1.13
2019-03-17T21:15:22.388Z,1.30
2019-03-17T21:17:52.872Z,1.10
2019-03-17T21:20:22.654Z,1.13
2019-03-17T21:22:51.092Z,1.20
2019-03-17T21:25:19.538Z,1.37
2019-03-17T21:27:48.052Z,1.00
2019-03-17T21:30:24.199Z,1.23
2019-03-17T21:32:52.641Z,1.23
2019-03-17T21:35:21.106Z,0.90
2019-03-17T21:37:49.559Z,1.10
2019-03-17T21:40:18.014Z,0.93
2019-03-17T21:42:46.529Z,1.07
2019-03-17T21:45:15.391Z,0.90
2019-03-17T21:47:43.894Z,1.00
2019-03-17T21:50:15.419Z,1.20
2019-03-17T21:52:43.895Z,1.20
2019-03-17T21:55:13.276Z,3.60
2019-03-17T21:57:41.704Z,1.60
2019-03-17T22:00:16.223Z,1.37
2019-03-17T22:02:44.869Z,1.20
2019-03-17T22:05:14.844Z,1.67
2019-03-17T22:07:50.088Z,1.23
2019-03-17T22:10:19.492Z,1.50
2019-03-17T22:12:48.048Z,1.50
2019-03-17T22:15:17.435Z,1.60
2019-03-17T22:17:46.056Z,1.83
2019-03-17T22:20:16.170Z,2.20
2019-03-17T22:22:44.864Z,2.07
2019-03-17T22:25:17.114Z,2.00
2019-03-17T22:27:45.540Z,2.30
2019-03-17T22:30:21.140Z,2.03
2019-03-17T22:32:49.620Z,2.10
2019-03-17T22:35:18.141Z,2.10
2019-03-17T22:37:46.604Z,2.50
2019-03-17T22:40:16.204Z,2.10
2019-03-17T22:42:44.618Z,2.30
2019-03-17T22:45:14.183Z,2.07
2019-03-17T22:47:42.601Z,2.40
2019-03-17T22:50:15.936Z,2.63
2019-03-17T22:52:44.428Z,2.30
2019-03-17T22:55:13.080Z,2.67
2019-03-17T22:57:41.500Z,2.30
2019-03-17T23:00:34.508Z,2.33
2019-03-17T23:03:03.021Z,2.60
2019-03-17T23:05:31.418Z,2.17
2019-03-17T23:07:59.848Z,2.53
2019-03-17T23:10:28.280Z,3.17
2019-03-17T23:12:56.717Z,2.00
2019-03-17T23:15:25.314Z,2.10
2019-03-17T23:17:53.737Z,1.50
2019-03-17T23:20:22.317Z,1.60
2019-03-17T23:22:50.775Z,1.63
2019-03-17T23:25:19.239Z,1.80
2019-03-17T23:27:47.666Z,1.70
2019-03-17T23:30:18.265Z,1.43
2019-03-17T23:32:49.232Z,1.67
2019-03-17T23:35:17.077Z,1.80
2019-03-17T23:37:45.716Z,1.80
2019-03-17T23:40:16.504Z,2.03
2019-03-17T23:42:45.094Z,1.70
2019-03-17T23:45:13.810Z,1.43
2019-03-17T23:47:42.366Z,1.83
2019-03-17T23:50:14.938Z,1.50
2019-03-17T23:52:43.409Z,1.50
2019-03-17T23:55:12.956Z,1.80
2019-03-17T23:57:41.697Z,1.57
